Time;durP1;ratioP1;P1;durP2;ratioP2;P2;SDS_P1;SDS_P2;PMS_P1;PMS_P2;Temp;Humidity;BMP_temperature;BMP_pressure;BME280_temperature;BME280_humidity;BME280_pressure;Samples;Min_cycle;Max_cycle;Signal;HPM_P1;HPM_P2
2022/05/21 00:01:08;;;;;;;4.53;2.63;;;13.80;97.80;;;;;;4172775;28;20041;-67
2022/05/21 00:03:10;;;;;;;5.80;2.50;;;13.70;98.50;;;;;;4173922;28;20029;-68
2022/05/21 00:05:11;;;;;;;5.57;2.60;;;13.60;98.90;;;;;;4173003;28;20020;-68
2022/05/21 00:07:13;;;;;;;5.47;2.90;;;13.50;99.50;;;;;;4173770;28;20041;-68
2022/05/21 00:09:14;;;;;;;9.90;2.23;;;13.40;99.70;;;;;;4173685;28;20539;-66
2022/05/21 00:11:15;;;;;;;13.00;3.83;;;13.40;99.90;;;;;;4174353;28;21053;-67
2022/05/21 00:13:16;;;;;;;6.37;3.00;;;13.30;99.90;;;;;;4190274;28;20094;-66
2022/05/21 00:15:21;;;;;;;6.43;2.90;;;13.30;99.90;;;;;;4188863;28;20024;-66
2022/05/21 00:17:23;;;;;;;13.70;3.30;;;13.30;99.90;;;;;;4190644;28;20036;-66
2022/05/21 00:19:24;;;;;;;4.53;2.70;;;13.30;99.90;;;;;;4189137;28;20054;-66
2022/05/21 00:21:25;;;;;;;5.63;3.10;;;13.30;99.90;;;;;;4190518;28;20045;-66
2022/05/21 00:23:32;;;;;;;7.53;3.43;;;13.30;99.90;;;;;;4187211;28;20066;-66
2022/05/21 00:25:33;;;;;;;4.30;3.03;;;13.10;99.90;;;;;;4190394;28;20803;-66
2022/05/21 00:27:35;;;;;;;4.43;2.67;;;13.10;99.90;;;;;;4189017;28;20062;-66
2022/05/21 00:29:36;;;;;;;3.77;2.20;;;13.10;99.90;;;;;;4190297;28;20044;-66
2022/05/21 00:31:37;;;;;;;8.33;3.23;;;13.10;99.90;;;;;;4174461;28;20044;-67
2022/05/21 00:33:39;;;;;;;7.83;2.47;;;13.00;99.90;;;;;;4174088;28;20082;-66
2022/05/21 00:35:40;;;;;;;7.47;3.13;;;13.00;99.90;;;;;;4172060;28;20037;-66
2022/05/21 00:37:41;;;;;;;6.80;3.40;;;12.90;99.90;;;;;;4173962;28;20041;-67
2022/05/21 00:39:42;;;;;;;5.37;3.23;;;12.90;99.90;;;;;;4172997;28;20032;-66
2022/05/21 00:41:44;;;;;;;6.80;3.53;;;12.80;99.90;;;;;;4178607;28;20032;-66
2022/05/21 00:43:52;;;;;;;8.17;3.93;;;12.70;99.90;;;;;;4189838;28;20028;-66
2022/05/21 00:45:53;;;;;;;12.13;4.20;;;12.60;99.90;;;;;;4188793;28;20439;-66
2022/05/21 00:47:54;;;;;;;5.10;3.90;;;12.60;99.90;;;;;;4190384;28;20081;-66
2022/05/21 00:49:55;;;;;;;6.43;3.53;;;12.60;99.90;;;;;;4188265;28;20033;-67
2022/05/21 00:52:04;;;;;;;6.33;3.47;;;12.70;99.90;;;;;;4190171;28;20541;-67
2022/05/21 00:54:07;;;;;;;7.07;4.20;;;12.70;99.90;;;;;;4188376;28;20025;-67
2022/05/21 00:56:11;;;;;;;7.17;3.63;;;12.70;99.90;;;;;;4190241;28;20045;-65
2022/05/21 01:00:36;;;;;;;11.30;4.07;;;12.70;99.90;;;;;;4189849;28;20041;-65
2022/05/21 01:02:47;;;;;;;8.63;4.37;;;12.70;99.90;;;;;;4184896;28;20029;-65
2022/05/21 01:04:49;;;;;;;7.93;4.53;;;12.70;99.90;;;;;;4173679;28;20021;-66
2022/05/21 01:06:50;;;;;;;16.63;5.47;;;12.70;99.90;;;;;;4172211;28;20013;-65
2022/05/21 01:08:51;;;;;;;12.17;4.87;;;12.70;99.90;;;;;;4173819;28;20043;-65
2022/05/21 01:10:57;;;;;;;7.53;5.00;;;12.70;99.90;;;;;;4171347;28;20025;-65
2022/05/21 01:12:58;;;;;;;25.00;7.13;;;12.70;99.90;;;;;;4173177;28;20049;-65
2022/05/21 01:15:02;;;;;;;14.83;4.87;;;12.70;99.90;;;;;;4171715;28;20036;-65
2022/05/21 01:17:04;;;;;;;7.73;3.53;;;12.70;99.90;;;;;;4173382;28;20115;-66
2022/05/21 01:19:09;;;;;;;6.93;3.57;;;12.70;99.90;;;;;;4172592;28;20107;-65
2022/05/21 01:21:11;;;;;;;10.83;2.77;;;12.70;99.90;;;;;;4173715;28;20037;-66
2022/05/21 01:23:14;;;;;;;6.63;3.00;;;12.70;99.90;;;;;;4172555;28;20091;-65
2022/05/21 01:25:18;;;;;;;6.93;3.60;;;12.70;99.90;;;;;;4171616;28;20082;-67
2022/05/21 01:27:20;;;;;;;3.80;2.70;;;12.70;99.90;;;;;;4172034;28;20095;-66
2022/05/21 01:29:28;;;;;;;8.43;3.40;;;12.70;99.90;;;;;;4172394;28;20053;-67
2022/05/21 01:31:32;;;;;;;8.37;3.57;;;12.70;99.90;;;;;;4172579;28;20025;-66
2022/05/21 01:33:37;;;;;;;8.80;3.17;;;12.70;99.90;;;;;;4171957;28;20037;-66
2022/05/21 01:35:40;;;;;;;3.20;2.30;;;12.70;99.90;;;;;;4175609;28;20028;-65
2022/05/21 01:37:41;;;;;;;8.00;3.37;;;12.60;99.90;;;;;;4188054;28;20048;-65
2022/05/21 01:39:43;;;;;;;5.83;2.40;;;12.60;99.90;;;;;;4190182;28;20066;-66
2022/05/21 01:41:45;;;;;;;4.97;2.60;;;12.50;99.90;;;;;;4188296;28;20028;-66
2022/05/21 01:46:06;;;;;;;3.63;2.33;;;12.40;99.90;;;;;;4188296;28;20033;-65
2022/05/21 01:48:08;;;;;;;6.73;2.93;;;12.30;99.90;;;;;;4190683;28;20258;-66
2022/05/21 01:50:09;;;;;;;4.53;2.40;;;12.20;99.90;;;;;;4183642;28;20029;-66
2022/05/21 01:52:12;;;;;;;5.57;2.43;;;12.10;99.90;;;;;;4186469;28;20048;-67
2022/05/21 01:54:13;;;;;;;5.37;3.67;;;12.10;99.90;;;;;;4190843;28;20075;-66
2022/05/21 01:56:15;;;;;;;6.00;4.10;;;12.00;99.90;;;;;;4192930;28;20024;-66
2022/05/21 01:58:17;;;;;;;8.60;4.30;;;11.90;99.90;;;;;;4191408;28;20090;-66
2022/05/21 02:00:19;;;;;;;3.70;2.80;;;11.80;99.90;;;;;;4193136;28;20467;-66
2022/05/21 02:02:21;;;;;;;4.47;3.13;;;11.80;99.90;;;;;;4191037;28;20081;-67
2022/05/21 02:04:22;;;;;;;5.13;3.23;;;11.70;99.90;;;;;;4192729;28;20455;-66
2022/05/21 02:06:23;;;;;;;4.03;2.53;;;11.50;99.90;;;;;;4190752;28;20868;-65
2022/05/21 02:08:24;;;;;;;12.23;3.20;;;11.40;99.90;;;;;;4190750;28;20045;-68
2022/05/21 02:10:25;;;;;;;5.57;3.33;;;11.30;99.90;;;;;;4191885;28;20067;-65
2022/05/21 02:12:27;;;;;;;8.97;4.20;;;11.20;99.90;;;;;;4191199;28;20094;-66
2022/05/21 02:14:28;;;;;;;9.70;3.43;;;11.10;99.90;;;;;;4192016;28;20090;-66
2022/05/21 02:16:29;;;;;;;10.70;3.47;;;11.10;99.90;;;;;;4190962;28;20036;-67
2022/05/21 02:18:31;;;;;;;6.07;3.20;;;11.00;99.90;;;;;;4192976;28;20037;-68
2022/05/21 02:20:32;;;;;;;11.80;3.30;;;11.10;99.90;;;;;;4190978;28;20062;-65
2022/05/21 02:22:36;;;;;;;6.17;3.40;;;11.20;99.90;;;;;;4192285;28;20049;-65
2022/05/21 02:24:37;;;;;;;7.27;4.23;;;11.20;99.90;;;;;;4183458;28;20082;-65
2022/05/21 02:26:39;;;;;;;7.00;4.13;;;11.10;99.90;;;;;;4176210;28;20059;-65
2022/05/21 02:28:40;;;;;;;8.73;4.10;;;11.00;99.90;;;;;;4174373;28;20485;-65
2022/05/21 02:30:43;;;;;;;18.50;4.97;;;11.00;99.90;;;;;;4175807;28;20037;-65
2022/05/21 02:32:44;;;;;;;7.57;4.13;;;10.90;99.90;;;;;;4173943;28;20090;-65
2022/05/21 02:34:45;;;;;;;7.63;4.10;;;10.80;99.90;;;;;;4175750;28;20029;-66
2022/05/21 02:39:26;;;;;;;14.57;4.93;;;10.70;99.90;;;;;;4166967;28;20049;-68
2022/05/21 02:41:27;;;;;;;8.33;4.10;;;10.70;99.90;;;;;;4173935;28;20037;-64
2022/05/21 02:43:29;;;;;;;12.87;4.50;;;10.60;99.90;;;;;;4175883;28;20083;-66
2022/05/21 02:45:30;;;;;;;21.70;5.30;;;10.60;99.90;;;;;;4173965;28;20545;-68
2022/05/21 02:47:32;;;;;;;11.20;4.30;;;10.60;99.90;;;;;;4175330;28;20100;-66
2022/05/21 02:49:33;;;;;;;9.27;4.33;;;10.60;99.90;;;;;;4174989;28;20041;-66
2022/05/21 02:51:34;;;;;;;9.70;4.80;;;10.50;99.90;;;;;;4174602;28;20106;-67
2022/05/21 02:53:35;;;;;;;13.00;4.93;;;10.40;99.90;;;;;;4174934;28;20021;-66
2022/05/21 02:55:37;;;;;;;11.47;4.20;;;10.40;99.90;;;;;;4174014;28;20036;-67
2022/05/21 02:57:38;;;;;;;10.53;5.83;;;10.40;99.90;;;;;;4187033;28;20056;-68
2022/05/21 02:59:40;;;;;;;15.77;5.67;;;10.40;99.90;;;;;;4190644;28;20094;-66
2022/05/21 03:01:41;;;;;;;17.43;8.60;;;10.40;99.90;;;;;;4192135;28;20098;-65
2022/05/21 03:03:42;;;;;;;11.00;5.00;;;10.40;99.90;;;;;;4174405;28;20448;-66
2022/05/21 03:05:43;;;;;;;11.37;5.43;;;10.40;99.90;;;;;;4175652;28;20036;-65
2022/05/21 03:07:47;;;;;;;14.47;5.67;;;10.40;99.90;;;;;;4172346;28;20650;-65
2022/05/21 03:12:09;;;;;;;9.15;5.70;;;10.50;99.90;;;;;;4182879;28;20049;-66
2022/05/21 03:14:10;;;;;;;8.17;5.50;;;10.60;99.90;;;;;;4191768;28;20032;-66
2022/05/21 03:16:11;;;;;;;12.70;5.50;;;10.70;99.90;;;;;;4189912;28;20643;-65
2022/05/21 03:18:14;;;;;;;12.53;5.27;;;10.90;99.90;;;;;;4191504;28;20098;-65
2022/05/21 03:20:19;;;;;;;14.60;6.90;;;11.10;99.90;;;;;;4189752;28;20550;-65
2022/05/21 03:22:20;;;;;;;16.33;5.73;;;11.30;99.90;;;;;;4191188;28;20437;-65
2022/05/21 03:24:21;;;;;;;17.70;6.27;;;11.60;99.90;;;;;;4190088;28;20097;-65
2022/05/21 03:26:22;;;;;;;13.13;6.17;;;11.80;99.90;;;;;;4185084;28;20071;-66
2022/05/21 03:28:23;;;;;;;10.93;5.70;;;12.00;99.90;;;;;;4174054;28;20539;-66
2022/05/21 03:30:27;;;;;;;15.30;5.87;;;12.40;99.90;;;;;;4188986;28;20028;-65
2022/05/21 03:32:28;;;;;;;14.70;6.60;;;12.80;99.90;;;;;;4190687;28;20102;-65
2022/05/21 03:34:30;;;;;;;13.03;6.27;;;13.30;99.90;;;;;;4188459;28;20496;-66
2022/05/21 03:36:32;;;;;;;11.17;5.40;;;13.80;99.90;;;;;;4174419;28;20487;-66
2022/05/21 03:38:33;;;;;;;12.23;5.83;;;14.40;99.90;;;;;;4173160;28;20719;-66
2022/05/21 03:40:34;;;;;;;16.50;6.20;;;14.90;99.90;;;;;;4174745;28;20025;-66
2022/05/21 03:42:37;;;;;;;15.53;5.67;;;15.30;99.90;;;;;;4172995;28;20106;-65
2022/05/21 03:44:38;;;;;;;11.27;4.80;;;15.50;99.90;;;;;;4174420;28;20036;-67
2022/05/21 03:46:39;;;;;;;11.30;5.47;;;15.80;99.90;;;;;;4172537;28;20079;-66
2022/05/21 03:48:40;;;;;;;13.43;5.50;;;16.00;99.90;;;;;;4181969;28;20093;-65
2022/05/21 03:50:42;;;;;;;12.93;5.97;;;16.10;99.90;;;;;;4189145;28;20020;-66
2022/05/21 03:52:44;;;;;;;17.63;5.97;;;16.30;99.90;;;;;;4179750;28;20041;-66
2022/05/21 03:54:45;;;;;;;17.80;6.00;;;16.40;99.90;;;;;;4172949;28;20025;-65
2022/05/21 03:56:46;;;;;;;9.10;5.80;;;16.30;99.90;;;;;;4173884;28;20029;-66
2022/05/21 03:58:48;;;;;;;8.53;5.73;;;16.30;99.90;;;;;;4173444;28;20048;-65
2022/05/21 04:00:50;;;;;;;12.88;5.97;;;16.30;99.90;;;;;;4185036;28;20062;-65
2022/05/21 04:02:51;;;;;;;17.33;6.20;;;16.30;99.90;;;;;;4190358;28;20032;-65
2022/05/21 04:04:53;;;;;;;13.20;6.53;;;16.40;99.90;;;;;;4189611;28;20028;-66
2022/05/21 04:06:55;;;;;;;14.60;6.50;;;16.30;99.90;;;;;;4190980;28;20485;-67
2022/05/21 04:08:56;;;;;;;16.88;5.50;;;16.40;99.90;;;;;;4186001;28;20056;-66
2022/05/21 04:10:57;;;;;;;17.77;7.47;;;16.40;99.90;;;;;;4173830;28;20033;-66
2022/05/21 04:12:58;;;;;;;14.05;6.22;;;16.50;99.90;;;;;;4172258;28;20174;-67
2022/05/21 04:14:59;;;;;;;15.57;6.20;;;16.80;99.90;;;;;;4174193;28;20094;-66
2022/05/21 04:17:02;;;;;;;16.77;5.82;;;16.80;99.90;;;;;;4172319;28;20029;-66
2022/05/21 04:19:04;;;;;;;14.57;5.95;;;16.80;99.90;;;;;;4174354;28;20041;-68
2022/05/21 04:21:05;;;;;;;11.60;6.20;;;16.90;99.90;;;;;;4172276;28;20477;-66
2022/05/21 04:23:06;;;;;;;12.10;6.53;;;16.80;99.90;;;;;;4174299;28;20045;-64
2022/05/21 04:25:08;;;;;;;8.05;5.68;;;16.90;99.90;;;;;;4170806;28;20040;-67
2022/05/21 04:27:10;;;;;;;19.42;7.15;;;16.90;99.90;;;;;;4172264;28;20579;-65
2022/05/21 04:29:12;;;;;;;17.65;6.15;;;16.80;99.90;;;;;;4172541;28;20037;-66
2022/05/21 04:31:13;;;;;;;30.42;7.22;;;16.90;99.90;;;;;;4173408;28;20037;-64
2022/05/21 04:33:14;;;;;;;19.55;6.18;;;16.90;99.90;;;;;;4178602;28;20121;-66
2022/05/21 04:35:16;;;;;;;17.95;7.00;;;17.10;99.90;;;;;;4188758;28;20033;-66
2022/05/21 04:37:19;;;;;;;17.40;7.13;;;17.30;99.90;;;;;;4189609;28;20060;-67
2022/05/21 04:39:20;;;;;;;13.90;6.78;;;17.30;99.90;;;;;;4188396;28;20505;-65
2022/05/21 04:41:22;;;;;;;16.00;7.13;;;17.20;99.90;;;;;;4190334;28;20032;-66
2022/05/21 04:43:23;;;;;;;14.32;6.60;;;17.20;99.90;;;;;;4188207;28;20036;-66
2022/05/21 04:45:24;;;;;;;13.65;5.50;;;17.20;99.90;;;;;;4190399;28;20090;-65
2022/05/21 04:47:26;;;;;;;19.75;5.72;;;17.30;99.90;;;;;;4175176;28;20041;-65
2022/05/21 04:49:27;;;;;;;15.68;6.03;;;17.40;99.90;;;;;;4174038;28;20083;-66
2022/05/21 04:51:28;;;;;;;19.85;6.80;;;17.40;99.90;;;;;;4171974;28;20032;-66
2022/05/21 04:53:30;;;;;;;17.38;6.32;;;17.30;99.90;;;;;;4177512;28;20421;-64
2022/05/21 04:55:31;;;;;;;15.52;5.95;;;17.20;99.90;;;;;;4171146;28;20559;-65
2022/05/21 04:57:32;;;;;;;18.20;6.75;;;17.20;99.90;;;;;;4174449;28;20091;-67
2022/05/21 04:59:33;;;;;;;15.27;6.07;;;17.10;99.90;;;;;;4170885;28;20834;-65
2022/05/21 05:01:35;;;;;;;14.38;6.65;;;16.80;99.90;;;;;;4172476;28;20428;-65
2022/05/21 05:03:37;;;;;;;20.35;7.07;;;16.50;99.90;;;;;;4172019;28;20029;-65
2022/05/21 05:05:39;;;;;;;12.70;6.53;;;16.20;99.90;;;;;;4171696;28;20509;-67
2022/05/21 05:07:41;;;;;;;11.63;5.32;;;16.10;99.90;;;;;;4171337;28;20041;-65
2022/05/21 05:09:45;;;;;;;9.70;4.97;;;16.20;99.90;;;;;;4186733;28;20044;-65
2022/05/21 05:11:47;;;;;;;12.05;5.18;;;16.00;99.90;;;;;;4180647;28;20040;-65
2022/05/21 05:13:48;;;;;;;13.25;6.00;;;15.80;99.90;;;;;;4171367;28;20017;-65
2022/05/21 05:15:49;;;;;;;9.27;6.15;;;15.80;99.90;;;;;;4175902;28;20120;-65
2022/05/21 05:17:50;;;;;;;16.85;6.05;;;15.90;99.90;;;;;;4187857;28;20036;-65
2022/05/21 05:19:54;;;;;;;10.60;6.82;;;16.20;99.90;;;;;;4190410;28;20040;-66
2022/05/21 05:21:55;;;;;;;11.45;6.30;;;16.30;99.90;;;;;;4188089;28;20070;-68
2022/05/21 05:23:56;;;;;;;13.52;5.03;;;16.30;99.90;;;;;;4189938;28;20044;-66
2022/05/21 05:26:00;;;;;;;10.77;6.07;;;16.30;99.90;;;;;;4186745;28;20033;-67
2022/05/21 05:28:02;;;;;;;15.30;6.10;;;16.50;99.90;;;;;;4191773;28;20102;-67
2022/05/21 05:30:03;;;;;;;12.10;6.40;;;16.70;99.90;;;;;;4190835;28;20032;-67
2022/05/21 05:32:06;;;;;;;16.55;5.93;;;17.00;99.90;;;;;;4190672;28;20447;-67
2022/05/21 05:34:07;;;;;;;11.18;4.70;;;17.60;99.90;;;;;;4191358;28;20123;-69
2022/05/21 05:36:08;;;;;;;10.30;4.78;;;18.00;99.30;;;;;;4191715;28;20032;-66
2022/05/21 05:38:12;;;;;;;15.55;4.82;;;18.30;98.90;;;;;;4191261;28;20815;-63
2022/05/21 05:40:17;;;;;;;9.68;4.30;;;18.60;98.10;;;;;;4190587;28;20082;-64
2022/05/21 05:42:19;;;;;;;15.98;3.92;;;18.60;97.70;;;;;;4185665;28;20115;-64
2022/05/21 05:44:21;;;;;;;8.52;3.67;;;18.90;97.30;;;;;;4174430;28;20040;-63
2022/05/21 05:46:23;;;;;;;11.35;3.92;;;19.00;96.70;;;;;;4176539;28;20048;-63
2022/05/21 05:48:25;;;;;;;6.80;4.03;;;18.90;96.60;;;;;;4177694;28;20157;-65
2022/05/21 05:50:26;;;;;;;7.95;3.35;;;18.80;96.60;;;;;;4189575;28;20041;-66
2022/05/21 05:52:28;;;;;;;6.60;3.13;;;18.70;96.30;;;;;;4173819;28;20029;-64
2022/05/21 05:54:29;;;;;;;12.18;3.45;;;18.70;96.40;;;;;;4176200;28;20041;-65
2022/05/21 05:56:30;;;;;;;7.60;3.60;;;18.80;96.30;;;;;;4174159;28;20033;-63
2022/05/21 06:00:52;;;;;;;8.30;2.90;;;19.20;95.50;;;;;;4190628;28;20389;-64
2022/05/21 06:03:00;;;;;;;4.55;2.22;;;19.40;95.10;;;;;;4187128;28;20344;-64
2022/05/21 06:05:03;;;;;;;9.35;2.63;;;19.50;94.60;;;;;;4173798;28;20029;-64
2022/05/21 06:07:04;;;;;;;10.35;3.72;;;19.50;94.00;;;;;;4175863;28;20048;-64
2022/05/21 06:09:05;;;;;;;5.75;3.03;;;19.40;94.10;;;;;;4173492;28;20130;-63
2022/05/21 06:11:06;;;;;;;8.63;3.30;;;19.20;93.90;;;;;;4175381;28;20087;-64
2022/05/21 06:13:08;;;;;;;8.27;2.90;;;19.00;94.10;;;;;;4174298;28;20146;-63
2022/05/21 06:15:11;;;;;;;11.52;4.22;;;19.00;93.80;;;;;;4176865;28;20033;-62
2022/05/21 06:17:13;;;;;;;8.18;3.03;;;19.30;93.60;;;;;;4158081;28;20064;-62
2022/05/21 06:19:14;;;;;;;8.43;2.88;;;19.90;93.20;;;;;;4174006;28;20106;-64
2022/05/21 06:21:15;;;;;;;6.20;2.85;;;20.00;93.10;;;;;;4191652;28;20094;-62
2022/05/21 06:23:17;;;;;;;9.40;3.20;;;19.90;93.00;;;;;;4190461;28;20473;-63
2022/05/21 06:25:22;;;;;;;8.25;3.67;;;19.80;93.10;;;;;;4191856;28;20431;-61
2022/05/21 06:27:23;;;;;;;7.82;3.10;;;19.70;93.10;;;;;;4190172;28;20443;-61
2022/05/21 06:29:24;;;;;;;9.63;3.75;;;19.60;93.30;;;;;;4192173;28;20030;-64
2022/05/21 06:31:25;;;;;;;7.88;2.80;;;19.50;93.50;;;;;;4189827;28;20413;-62
2022/05/21 06:33:28;;;;;;;6.88;2.75;;;19.60;93.50;;;;;;4191572;28;20024;-62
2022/05/21 06:35:33;;;;;;;7.70;3.10;;;19.50;93.30;;;;;;4190432;28;20091;-62
2022/05/21 06:37:35;;;;;;;6.57;3.45;;;19.50;93.30;;;;;;4191688;28;20029;-62
2022/05/21 06:39:38;;;;;;;4.85;2.75;;;19.80;93.30;;;;;;4188986;28;20074;-62
2022/05/21 06:41:39;;;;;;;4.00;2.47;;;20.10;92.90;;;;;;4191225;28;20032;-63
2022/05/21 06:43:41;;;;;;;4.88;2.15;;;20.40;92.60;;;;;;4189719;28;20058;-62
2022/05/21 06:45:42;;;;;;;6.40;2.15;;;20.50;92.20;;;;;;4191486;28;20646;-62
2022/05/21 06:47:43;;;;;;;7.15;2.80;;;20.30;91.60;;;;;;4190238;28;20094;-61
2022/05/21 06:49:44;;;;;;;6.95;2.40;;;20.10;91.70;;;;;;4158182;28;20029;-61
2022/05/21 06:51:45;;;;;;;5.35;1.60;;;20.10;91.60;;;;;;4181910;28;20125;-62
2022/05/21 06:53:46;;;;;;;5.30;2.72;;;20.10;91.40;;;;;;4190490;28;20124;-62
2022/05/21 06:55:48;;;;;;;3.20;2.22;;;20.10;91.20;;;;;;4190680;28;20480;-63
2022/05/21 06:57:50;;;;;;;8.43;2.78;;;19.80;91.10;;;;;;4189661;28;20110;-62
2022/05/21 06:59:52;;;;;;;3.65;2.33;;;19.60;91.50;;;;;;4191457;28;20388;-63
2022/05/21 07:01:53;;;;;;;4.68;2.35;;;19.40;91.60;;;;;;4174768;28;20033;-65
2022/05/21 07:03:54;;;;;;;3.08;2.30;;;19.70;91.60;;;;;;4174751;28;20097;-62
2022/05/21 07:08:24;;;;;;;5.95;2.72;;;20.00;91.30;;;;;;4175230;28;20037;-63
2022/05/21 07:10:29;;;;;;;6.47;2.42;;;20.30;91.30;;;;;;4176307;28;20082;-63
2022/05/21 07:12:31;;;;;;;7.55;2.22;;;20.30;91.20;;;;;;4175059;28;20118;-62
2022/05/21 07:14:32;;;;;;;2.83;2.25;;;20.40;91.40;;;;;;4172987;28;20099;-62
2022/05/21 07:16:33;;;;;;;3.08;2.42;;;20.30;91.60;;;;;;4174147;28;20071;-61
2022/05/21 07:18:35;;;;;;;4.10;2.35;;;20.40;91.40;;;;;;4173351;28;20055;-63
2022/05/21 07:20:36;;;;;;;7.28;1.75;;;20.70;91.20;;;;;;4175135;28;20443;-63
2022/05/21 07:22:45;;;;;;;4.32;2.25;;;20.80;91.10;;;;;;4172760;28;20099;-62
2022/05/21 07:24:47;;;;;;;4.88;1.60;;;21.10;90.00;;;;;;4174554;28;20083;-63
2022/05/21 07:26:48;;;;;;;2.47;1.80;;;21.20;89.60;;;;;;4173068;28;20075;-64
2022/05/21 07:28:49;;;;;;;4.20;1.70;;;21.30;88.70;;;;;;4170457;28;20439;-64
2022/05/21 07:30:51;;;;;;;5.00;2.20;;;21.50;87.60;;;;;;4171961;28;20021;-68
2022/05/21 07:32:55;;;;;;;3.50;1.80;;;21.50;86.70;;;;;;4177895;28;20302;-69
2022/05/21 07:35:02;;;;;;;4.10;2.10;;;21.40;86.60;;;;;;4161398;28;20431;-63
2022/05/21 07:37:03;;;;;;;6.97;2.40;;;21.20;86.20;;;;;;4172063;28;20047;-63
2022/05/21 07:39:04;;;;;;;3.42;2.17;;;21.30;86.60;;;;;;4173119;28;20037;-65
2022/05/21 07:41:06;;;;;;;7.20;2.80;;;21.50;85.90;;;;;;4171683;28;20049;-65
2022/05/21 07:43:22;;;;;;;7.90;2.47;;;21.40;85.60;;;;;;4173924;28;20102;-65
2022/05/21 07:45:24;;;;;;;5.47;2.47;;;21.40;85.90;;;;;;4171992;28;20041;-66
2022/05/21 07:47:25;;;;;;;10.20;2.60;;;21.70;85.70;;;;;;4172134;28;20041;-65
2022/05/21 07:49:26;;;;;;;6.35;2.60;;;21.80;85.50;;;;;;4172620;28;20372;-65
2022/05/21 07:51:30;;;;;;;9.32;2.35;;;21.90;85.80;;;;;;4173369;28;20775;-67
2022/05/21 07:53:35;;;;;;;4.70;2.58;;;21.80;86.20;;;;;;4171994;28;20038;-65
2022/05/21 07:55:36;;;;;;;8.48;2.95;;;21.80;87.20;;;;;;4173220;28;20062;-65
2022/05/21 07:57:37;;;;;;;8.45;3.00;;;21.80;88.00;;;;;;4171725;28;21003;-67
2022/05/21 07:59:39;;;;;;;9.43;3.10;;;21.90;88.60;;;;;;4172977;28;20045;-67
2022/05/21 08:01:40;;;;;;;11.90;4.53;;;22.20;88.70;;;;;;4171322;28;20075;-67
2022/05/21 08:03:41;;;;;;;6.43;3.00;;;22.40;88.70;;;;;;4172241;28;20032;-69
2022/05/21 08:05:43;;;;;;;8.85;3.47;;;22.60;88.40;;;;;;4172417;28;20105;-66
2022/05/21 08:07:49;;;;;;;8.02;3.28;;;22.60;88.50;;;;;;4172638;28;20512;-67
2022/05/21 08:09:50;;;;;;;8.52;4.05;;;22.70;89.10;;;;;;4172357;28;20083;-66
2022/05/21 08:11:52;;;;;;;8.18;2.92;;;23.10;89.40;;;;;;4172290;28;20029;-67
2022/05/21 08:13:53;;;;;;;9.90;3.72;;;23.20;88.50;;;;;;4173143;28;20090;-66
2022/05/21 08:15:56;;;;;;;8.50;4.13;;;23.20;88.90;;;;;;4172152;28;20075;-66
2022/05/21 08:17:57;;;;;;;10.02;3.63;;;23.20;89.50;;;;;;4172043;28;20079;-67
2022/05/21 08:19:58;;;;;;;9.27;3.38;;;23.20;90.10;;;;;;4176693;28;20436;-66
2022/05/21 08:26:56;;;;;;;9.13;2.97;;;;;;;;;;4189860;28;20086;-67
2022/05/21 08:26:59;;;;;;;4.07;2.90;;;23.90;89.90;;;;;;4189060;28;20032;-66
2022/05/21 08:29:00;;;;;;;4.85;2.65;;;23.90;90.10;;;;;;4189123;28;20036;-67
2022/05/21 08:31:03;;;;;;;6.85;2.85;;;;;;;;;;4189412;28;20078;-66
2022/05/21 08:33:06;;;;;;;7.40;3.40;;;;;;;;;;4188141;28;20101;-66
2022/05/21 08:35:08;;;;;;;8.48;3.10;;;;;;;;;;4189976;28;20042;-67
2022/05/21 08:37:09;;;;;;;9.55;3.10;;;;;;;;;;4187600;28;20045;-67
2022/05/21 08:39:10;;;;;;;4.18;2.70;;;;;;;;;;4190119;28;20401;-68
2022/05/21 08:41:29;;;;;;;7.20;3.08;;;;;;;;;;4188187;28;20037;-66
2022/05/21 08:43:37;;;;;;;5.15;2.35;;;;;;;;;;4189676;28;20050;-67
2022/05/21 08:45:52;;;;;;;2.83;2.15;;;;;;;;;;4178457;28;20091;-66
2022/05/21 08:47:59;;;;;;;2.28;2.08;;;;;;;;;;4173347;28;20044;-67
2022/05/21 08:50:03;;;;;;;7.15;2.33;;;;;;;;;;4172158;28;20110;-67
2022/05/21 08:52:05;;;;;;;3.85;2.78;;;;;;;;;;4172904;28;20110;-67
2022/05/21 08:54:06;;;;;;;4.63;2.33;;;;;;;;;;4170494;28;20037;-68
2022/05/21 08:56:09;;;;;;;3.55;2.38;;;;;;;;;;4171999;28;20094;-67
2022/05/21 08:58:17;;;;;;;5.68;2.88;;;;;;;;;;4170690;28;20090;-67
2022/05/21 09:00:23;;;;;;;9.93;3.33;;;;;;;;;;4173417;28;20052;-65
2022/05/21 09:02:30;;;;;;;4.88;2.80;;;;;;;;;;4170623;28;20025;-66
2022/05/21 09:04:32;;;;;;;6.70;2.78;;;;;;;;;;4173564;28;20099;-66
2022/05/21 09:06:52;;;;;;;6.38;2.42;;;;;;;;;;4171397;28;20045;-67
2022/05/21 09:09:01;;;;;;;4.85;2.72;;;;;;;;;;4173000;28;20024;-66
2022/05/21 09:11:06;;;;;;;3.05;1.80;;;;;;;;;;4170889;28;20029;-68
2022/05/21 09:13:12;;;;;;;2.47;2.17;;;;;;;;;;4172537;28;20095;-66
2022/05/21 09:16:54;;;;;;;4.63;1.67;;;;;;;;;;4171255;28;20174;-65
2022/05/21 09:17:42;;;;;;;8.93;2.47;;;;;;;;;;4187278;28;20078;-65
2022/05/21 09:19:52;;;;;;;4.60;1.88;;;;;;;;;;4186617;28;20090;-66
2022/05/21 09:21:59;;;;;;;2.40;1.73;;;;;;;;;;4188814;28;20086;-67
2022/05/21 09:24:05;;;;;;;6.90;2.30;;;;;;;;;;4187663;28;20070;-67
2022/05/21 09:26:08;;;;;;;5.43;1.98;;;;;;;;;;4189120;28;20028;-66
2022/05/21 09:28:11;;;;;;;3.67;2.20;;;;;;;;;;4187550;28;20048;-67
2022/05/21 09:30:17;;;;;;;3.17;2.03;;;;;;;;;;4188316;28;20016;-66
2022/05/21 09:32:23;;;;;;;2.60;2.00;;;;;;;;;;4176260;28;20044;-66
2022/05/21 09:34:29;;;;;;;5.32;2.00;;;;;;;;;;4172876;28;20045;-66
2022/05/21 09:36:35;;;;;;;5.40;1.80;;;;;;;;;;4170296;28;20025;-66
2022/05/21 09:38:49;;;;;;;4.43;2.05;;;;;;;;;;4172159;28;20110;-67
2022/05/21 09:41:02;;;;;;;3.47;1.80;;;;;;;;;;4180615;28;20127;-67
2022/05/21 09:45:34;;;;;;;4.65;2.00;;;;;;;;;;4170439;28;20037;-67
2022/05/21 09:47:35;;;;;;;5.20;2.40;;;;;;;;;;4171714;28;20045;-67
2022/05/21 09:49:39;;;;;;;4.93;2.20;;;;;;;;;;4170730;28;20110;-66
2022/05/21 09:51:40;;;;;;;8.05;2.30;;;;;;;;;;4172454;28;20049;-65
2022/05/21 09:53:41;;;;;;;13.15;2.15;;;;;;;;;;4170884;28;20032;-66
2022/05/21 09:55:43;;;;;;;2.53;1.65;;;;;;;;;;4171496;28;20523;-65
2022/05/21 09:57:45;;;;;;;5.72;3.08;;;;;;;;;;4171844;28;20098;-66
2022/05/21 10:00:05;;;;;;;2.60;1.85;;;;;;;;;;4170951;28;20045;-66
2022/05/21 10:02:22;;;;;;;10.77;4.47;;;;;;;;;;4171628;28;20033;-66
2022/05/21 10:04:27;;;;;;;4.88;1.70;;;;;;;;;;4171313;28;20086;-67
2022/05/21 10:06:31;;;;;;;5.45;1.73;;;;;;;;;;4176300;28;20094;-66
2022/05/21 10:11:00;;;;;;;2.13;1.60;;;;;;;;;;4188135;28;20041;-64
2022/05/21 10:13:03;;;;;;;3.97;1.40;;;;;;;;;;4174613;28;20053;-66
2022/05/21 10:15:06;;;;;;;5.13;2.20;;;;;;;;;;4175018;28;20033;-64
2022/05/21 10:17:10;;;;;;;5.90;1.60;;;;;;;;;;4173260;28;20029;-65
2022/05/21 10:19:34;;;;;;;4.30;1.60;;;;;;;;;;4173667;28;20044;-64
2022/05/21 10:21:41;;;;;;;4.00;1.38;;;;;;;;;;4174469;28;20168;-65
2022/05/21 10:23:51;;;;;;;3.65;1.67;;;;;;;;;;4174915;28;20362;-65
2022/05/21 10:26:11;;;;;;;8.30;4.85;;;;;;;;;;4174264;28;20152;-65
2022/05/21 10:28:24;;;;;;;9.90;3.70;;;;;;;;;;4173732;28;20440;-65
2022/05/21 10:30:35;;;;;;;2.83;1.80;;;;;;;;;;4174964;28;20037;-65
2022/05/21 10:32:36;;;;;;;4.35;1.58;;;;;;;;;;4174025;28;20097;-66
2022/05/21 10:34:41;;;;;;;7.95;3.53;;;;;;;;;;4173910;28;20051;-65
2022/05/21 10:36:55;;;;;;;12.90;5.90;;;;;;;;;;4174514;28;20536;-64
2022/05/21 10:39:03;;;;;;;24.15;6.05;;;;;;;;;;4173674;28;20501;-65
2022/05/21 10:41:07;;;;;;;8.93;3.45;;;;;;;;;;4174006;28;20037;-65
2022/05/21 10:43:23;;;;;;;7.68;2.80;;;;;;;;;;4173546;28;20025;-65
2022/05/21 10:45:27;;;;;;;3.42;2.00;;;;;;;;;;4174623;28;20434;-65
2022/05/21 10:47:34;;;;;;;10.48;2.75;;;;;;;;;;4182785;28;20036;-65
2022/05/21 10:49:44;;;;;;;8.25;3.00;;;;;;;;;;4180698;28;20049;-65
2022/05/21 10:51:52;;;;;;;32.95;15.70;;;;;;;;;;4173846;28;20091;-64
2022/05/21 10:54:09;;;;;;;9.40;2.90;;;;;;;;;;4173916;28;20511;-66
2022/05/21 10:56:27;;;;;;;7.80;3.40;;;;;;;;;;4173375;28;20109;-66
2022/05/21 10:58:31;;;;;;;5.85;2.15;;;;;;;;;;4172986;28;20800;-65
2022/05/21 11:00:33;;;;;;;3.58;2.25;;;;;;;;;;4172414;28;20037;-65
2022/05/21 11:02:46;;;;;;;5.72;2.30;;;;;;;;;;4173746;28;20419;-65
2022/05/21 11:04:51;;;;;;;2.63;1.95;;;;;;;;;;4173084;28;20037;-64
2022/05/21 11:07:11;;;;;;;6.90;3.00;;;;;;;;;;4173587;28;20091;-64
2022/05/21 11:09:25;;;;;;;6.28;2.75;;;;;;;;;;4173115;28;20091;-65
2022/05/21 11:11:45;;;;;;;7.90;2.80;;;;;;;;;;4173174;28;20461;-67
2022/05/21 11:13:55;;;;;;;22.88;5.35;;;;;;;;;;4173340;28;20354;-64
2022/05/21 11:16:04;;;;;;;32.35;5.90;;;;;;;;;;4173420;28;20029;-63
2022/05/21 11:18:24;;;;;;;16.15;4.00;;;;;;;;;;4173725;28;20025;-64
2022/05/21 11:20:37;;;;;;;6.30;2.30;;;;;;;;;;4171891;28;20071;-64
2022/05/21 11:22:45;;;;;;;6.80;2.70;;;;;;;;;;4182584;28;20070;-64
2022/05/21 11:25:04;;;;;;;2.53;1.88;;;;;;;;;;4187847;28;20028;-64